createdAt,value
2018-06-14T00:02:05.402Z,11.57
2018-06-14T00:04:35.010Z,10.37
2018-06-14T00:07:05.299Z,10.93
2018-06-14T00:09:35.101Z,9.83
2018-06-14T00:12:04.802Z,9.87
2018-06-14T00:14:34.935Z,9.53
2018-06-14T00:17:04.751Z,9.93
2018-06-14T00:19:34.858Z,9.77
2018-06-14T00:22:04.576Z,9.87
2018-06-14T00:24:34.175Z,9.30
2018-06-14T00:27:04.513Z,9.97
2018-06-14T00:29:34.214Z,9.63
2018-06-14T00:32:04.450Z,9.10
2018-06-14T00:34:34.103Z,8.70
2018-06-14T00:37:03.715Z,7.97
2018-06-14T00:39:33.454Z,6.10
2018-06-14T00:42:03.407Z,4.80
2018-06-14T00:44:33.497Z,6.50
2018-06-14T00:47:03.612Z,5.27
2018-06-14T00:49:33.322Z,5.47
2018-06-14T00:52:03.449Z,7.03
2018-06-14T00:54:32.991Z,5.90
2018-06-14T00:57:13.598Z,6.20
2018-06-14T00:59:43.392Z,6.43
2018-06-14T01:02:13.572Z,7.60
2018-06-14T01:04:43.190Z,7.77
2018-06-14T01:07:13.031Z,9.67
2018-06-14T01:09:42.695Z,9.90
2018-06-14T01:12:12.616Z,10.30
2018-06-14T01:14:42.576Z,10.23
2018-06-14T01:17:12.750Z,10.17
2018-06-14T01:19:42.467Z,10.30
2018-06-14T01:22:12.202Z,11.13
2018-06-14T01:24:41.983Z,10.33
2018-06-14T01:27:12.243Z,11.13
2018-06-14T01:29:42.136Z,11.87
2018-06-14T01:32:11.941Z,12.23
2018-06-14T01:34:41.898Z,12.57
2018-06-14T01:37:11.463Z,12.60
2018-06-14T01:39:41.159Z,15.47
2018-06-14T01:42:11.230Z,16.47
2018-06-14T01:44:41.106Z,15.83
2018-06-14T01:47:10.961Z,15.13
2018-06-14T01:49:40.631Z,15.80
2018-06-14T01:52:10.853Z,16.30
2018-06-14T01:54:41.640Z,15.37
2018-06-14T01:57:12.155Z,13.33
2018-06-14T01:59:42.131Z,13.60
2018-06-14T02:02:11.958Z,13.80
2018-06-14T02:04:42.301Z,14.40
2018-06-14T02:07:12.184Z,13.83
2018-06-14T02:09:42.049Z,14.73
2018-06-14T02:12:12.016Z,15.53
2018-06-14T02:14:41.677Z,15.27
2018-06-14T02:17:11.338Z,14.07
2018-06-14T02:19:41.472Z,14.50
2018-06-14T02:22:11.414Z,13.90
2018-06-14T02:24:41.625Z,12.23
2018-06-14T02:27:11.362Z,14.33
2018-06-14T02:29:41.031Z,12.97
2018-06-14T02:32:10.777Z,14.40
2018-06-14T02:34:40.299Z,14.70
2018-06-14T02:37:10.174Z,15.30
2018-06-14T02:39:39.902Z,14.03
2018-06-14T02:42:09.696Z,12.30
2018-06-14T02:44:39.933Z,13.60
2018-06-14T02:47:09.631Z,14.47
2018-06-14T02:49:39.323Z,14.83
2018-06-14T02:52:09.347Z,16.40
2018-06-14T02:54:39.267Z,14.73
2018-06-14T02:57:09.168Z,14.87
2018-06-14T02:59:39.269Z,14.33
2018-06-14T03:02:08.950Z,17.30
2018-06-14T03:04:38.843Z,17.10
2018-06-14T03:07:08.533Z,16.67
2018-06-14T03:09:38.644Z,16.90
2018-06-14T03:12:08.431Z,15.50
2018-06-14T03:14:38.454Z,14.10
2018-06-14T03:17:08.676Z,14.03
2018-06-14T03:19:38.383Z,13.13
2018-06-14T03:22:08.883Z,15.00
2018-06-14T03:24:38.776Z,13.20
2018-06-14T03:27:08.573Z,13.03
2018-06-14T03:29:38.890Z,14.27
2018-06-14T03:32:08.599Z,13.97
2018-06-14T03:34:38.603Z,14.97
2018-06-14T03:37:08.338Z,15.90
2018-06-14T03:39:38.103Z,14.23
2018-06-14T03:42:15.442Z,13.00
2018-06-14T03:44:45.527Z,13.80
2018-06-14T03:47:15.802Z,12.07
2018-06-14T03:49:45.877Z,14.03
2018-06-14T03:52:16.152Z,12.80
2018-06-14T03:54:45.829Z,14.17
2018-06-14T03:57:15.807Z,18.40
2018-06-14T03:59:45.600Z,15.30
2018-06-14T04:02:15.275Z,12.30
2018-06-14T04:04:45.228Z,10.63
2018-06-14T04:07:15.103Z,16.07
2018-06-14T04:09:45.246Z,16.43
2018-06-14T04:12:15.350Z,18.27
2018-06-14T04:14:45.689Z,18.83
2018-06-14T04:17:15.591Z,19.10
2018-06-14T04:19:45.503Z,18.80
2018-06-14T04:22:15.807Z,19.57
2018-06-14T04:24:45.933Z,19.07
2018-06-14T04:27:15.890Z,16.60
2018-06-14T04:29:45.791Z,14.80
2018-06-14T04:32:15.560Z,14.00
2018-06-14T04:34:45.771Z,11.70
2018-06-14T04:37:15.527Z,10.23
2018-06-14T04:39:45.873Z,10.10
2018-06-14T04:42:15.918Z,9.47
2018-06-14T04:44:45.998Z,8.70
2018-06-14T04:47:15.687Z,9.03
2018-06-14T04:49:45.387Z,8.90
2018-06-14T04:52:15.451Z,8.57
2018-06-14T04:54:47.967Z,8.40
2018-06-14T04:57:18.265Z,7.93
2018-06-14T04:59:47.723Z,7.47
2018-06-14T05:02:17.389Z,8.03
2018-06-14T05:04:47.121Z,11.10
2018-06-14T05:07:16.610Z,11.17
2018-06-14T05:09:46.380Z,9.37
2018-06-14T05:12:16.350Z,9.33
2018-06-14T05:14:46.431Z,10.10
2018-06-14T05:17:16.315Z,8.57
2018-06-14T05:19:46.256Z,8.47
2018-06-14T05:22:16.272Z,8.57
2018-06-14T05:24:46.160Z,8.70
2018-06-14T05:27:16.031Z,8.93
2018-06-14T05:29:45.804Z,8.37
2018-06-14T05:32:15.794Z,7.83
2018-06-14T05:34:45.766Z,8.57
2018-06-14T05:37:15.390Z,8.83
2018-06-14T05:39:45.266Z,10.03
2018-06-14T05:42:15.422Z,8.70
2018-06-14T05:44:46.788Z,10.20
2018-06-14T05:47:16.871Z,9.43
2018-06-14T05:49:46.835Z,11.40
2018-06-14T05:52:16.654Z,9.60
2018-06-14T05:54:47.138Z,10.50
2018-06-14T05:57:17.026Z,11.40
2018-06-14T05:59:47.050Z,10.47
2018-06-14T06:02:17.165Z,10.57
2018-06-14T06:04:46.923Z,9.80
2018-06-14T06:07:16.483Z,9.60
2018-06-14T06:09:46.375Z,8.37
2018-06-14T06:12:16.328Z,9.17
2018-06-14T06:14:46.674Z,8.53
2018-06-14T06:17:16.658Z,7.47
2018-06-14T06:19:46.481Z,6.63
2018-06-14T06:22:16.351Z,7.63
2018-06-14T06:24:46.287Z,7.57
2018-06-14T06:27:16.834Z,6.83
2018-06-14T06:29:46.750Z,7.27
2018-06-14T06:32:17.002Z,8.37
2018-06-14T06:34:46.888Z,6.03
2018-06-14T06:37:16.797Z,6.67
2018-06-14T06:39:46.317Z,7.20
2018-06-14T06:42:15.826Z,6.60
2018-06-14T06:44:45.962Z,7.40
2018-06-14T06:47:15.848Z,6.53
2018-06-14T06:49:45.850Z,6.87
2018-06-14T06:52:16.132Z,6.57
2018-06-14T06:54:45.858Z,7.57
2018-06-14T06:57:15.718Z,8.07
2018-06-14T06:59:45.857Z,8.03
2018-06-14T07:02:15.847Z,7.97
2018-06-14T07:04:45.560Z,8.30
2018-06-14T07:07:16.007Z,8.30
2018-06-14T07:09:45.892Z,8.60
2018-06-14T07:12:16.151Z,9.33
2018-06-14T07:14:46.031Z,10.10
2018-06-14T07:17:15.712Z,9.20
2018-06-14T07:19:45.459Z,9.70
2018-06-14T07:22:15.156Z,12.57
2018-06-14T07:24:45.494Z,11.63
2018-06-14T07:27:15.296Z,11.20
2018-06-14T07:29:45.381Z,11.33
2018-06-14T07:32:15.411Z,9.33
2018-06-14T07:34:45.075Z,9.57
2018-06-14T07:37:14.806Z,10.73
2018-06-14T07:39:44.744Z,9.67
2018-06-14T07:42:14.371Z,9.23
2018-06-14T07:44:44.465Z,9.00
2018-06-14T07:47:13.979Z,7.57
2018-06-14T07:49:44.138Z,8.97
2018-06-14T07:52:13.850Z,9.30
2018-06-14T07:54:43.854Z,10.13
2018-06-14T07:57:13.894Z,8.30
2018-06-14T07:59:43.928Z,8.80
2018-06-14T08:02:13.596Z,8.37
2018-06-14T08:04:43.923Z,8.97
2018-06-14T08:07:13.739Z,8.60
2018-06-14T08:09:43.525Z,9.27
2018-06-14T08:12:13.679Z,8.10
2018-06-14T08:14:43.282Z,9.70
2018-06-14T08:17:13.272Z,8.53
2018-06-14T08:19:42.782Z,10.50
2018-06-14T08:22:12.548Z,9.53
2018-06-14T08:24:42.784Z,11.13
2018-06-14T08:27:12.711Z,11.67
2018-06-14T08:29:43.118Z,11.33
2018-06-14T08:32:13.028Z,13.07
2018-06-14T08:34:43.367Z,12.93
2018-06-14T08:37:13.335Z,12.20
2018-06-14T08:39:43.711Z,10.93
2018-06-14T08:42:13.410Z,11.33
2018-06-14T08:44:43.699Z,11.20
2018-06-14T08:47:13.355Z,10.07
2018-06-14T08:49:43.489Z,9.90
2018-06-14T08:52:13.208Z,10.30
2018-06-14T08:54:43.103Z,9.03
2018-06-14T08:57:13.106Z,9.13
2018-06-14T08:59:43.136Z,8.40
2018-06-14T09:02:13.282Z,7.53
2018-06-14T09:04:43.174Z,7.50
2018-06-14T09:07:13.394Z,8.13
2018-06-14T09:09:43.065Z,6.43
2018-06-14T09:12:12.907Z,5.33
2018-06-14T09:14:43.268Z,5.93
2018-06-14T09:17:12.737Z,5.83
2018-06-14T09:19:42.228Z,5.60
2018-06-14T09:22:12.095Z,6.07
2018-06-14T09:24:41.888Z,5.50
2018-06-14T09:27:11.577Z,5.10
2018-06-14T09:29:41.641Z,5.67
2018-06-14T09:32:11.187Z,5.73
2018-06-14T09:34:41.109Z,5.10
2018-06-14T09:37:11.751Z,5.70
2018-06-14T09:39:41.587Z,6.43
2018-06-14T09:42:11.532Z,7.07
2018-06-14T09:44:41.251Z,6.60
2018-06-14T09:47:11.195Z,8.30
2018-06-14T09:49:41.549Z,6.63
2018-06-14T09:52:11.203Z,6.80
2018-06-14T09:54:40.767Z,6.30
2018-06-14T09:57:10.604Z,6.33
2018-06-14T09:59:40.126Z,6.22
2018-06-14T10:02:10.315Z,6.87
2018-06-14T10:04:40.337Z,5.87
2018-06-14T10:07:10.135Z,6.05
2018-06-14T10:09:40.184Z,6.60
2018-06-14T10:12:09.902Z,6.90
2018-06-14T10:14:39.558Z,7.25
2018-06-14T10:17:09.498Z,7.85
2018-06-14T10:19:39.180Z,6.30
2018-06-14T10:22:08.932Z,7.67
2018-06-14T10:24:38.503Z,8.30
2018-06-14T10:27:08.222Z,5.97
2018-06-14T10:29:38.367Z,6.80
2018-06-14T10:32:07.942Z,6.55
2018-06-14T10:34:38.320Z,5.75
2018-06-14T10:37:08.064Z,6.75
2018-06-14T10:39:37.722Z,5.67
2018-06-14T10:42:07.390Z,6.33
2018-06-14T10:44:37.316Z,7.12
2018-06-14T10:47:07.234Z,7.22
2018-06-14T10:49:36.974Z,5.85
2018-06-14T10:52:06.671Z,5.95
2018-06-14T10:54:36.635Z,7.90
2018-06-14T10:57:06.179Z,7.97
2018-06-14T10:59:36.005Z,6.47
2018-06-14T11:02:05.647Z,7.53
2018-06-14T11:04:35.186Z,6.25
2018-06-14T11:07:04.875Z,6.50
2018-06-14T11:09:35.075Z,6.90
2018-06-14T11:12:05.061Z,8.13
2018-06-14T11:14:35.415Z,7.17
2018-06-14T11:17:05.008Z,6.75
2018-06-14T11:19:34.851Z,7.05
2018-06-14T11:22:04.674Z,6.60
2018-06-14T11:24:34.449Z,7.67
2018-06-14T11:27:04.287Z,6.60
2018-06-14T11:29:34.186Z,6.40
2018-06-14T11:32:03.820Z,6.58
2018-06-14T11:34:33.379Z,7.28
2018-06-14T11:37:03.241Z,7.50
2018-06-14T11:39:33.009Z,7.90
2018-06-14T11:42:03.164Z,8.13
2018-06-14T11:44:33.343Z,8.03
2018-06-14T11:47:03.427Z,6.92
2018-06-14T11:49:33.093Z,7.80
2018-06-14T11:52:02.916Z,8.75
2018-06-14T11:54:32.933Z,9.60
2018-06-14T11:57:03.055Z,9.63
2018-06-14T11:59:32.731Z,7.92
2018-06-14T12:02:02.776Z,7.67
2018-06-14T12:04:32.651Z,8.20
2018-06-14T12:07:02.195Z,6.83
2018-06-14T12:09:32.071Z,7.83
2018-06-14T12:12:01.707Z,8.58
2018-06-14T12:14:31.961Z,8.38
2018-06-14T12:17:01.731Z,8.13
2018-06-14T12:19:31.528Z,7.33
2018-06-14T12:22:01.485Z,7.65
2018-06-14T12:24:31.172Z,6.90
2018-06-14T12:27:01.551Z,7.72
2018-06-14T12:29:31.511Z,6.33
2018-06-14T12:32:01.813Z,6.33
2018-06-14T12:34:31.584Z,6.00
2018-06-14T12:37:01.277Z,5.97
2018-06-14T12:39:31.142Z,5.37
2018-06-14T12:42:00.795Z,4.55
2018-06-14T12:44:30.947Z,5.53
2018-06-14T12:47:00.741Z,4.47
2018-06-14T12:49:30.475Z,5.00
2018-06-14T12:52:00.354Z,5.15
2018-06-14T12:54:30.422Z,4.92
2018-06-14T12:56:59.997Z,5.87
2018-06-14T12:59:30.237Z,5.53
2018-06-14T13:02:00.006Z,6.05
2018-06-14T13:04:29.716Z,6.97
2018-06-14T13:06:59.981Z,7.15
2018-06-14T13:09:29.892Z,8.25
2018-06-14T13:11:59.446Z,9.47
2018-06-14T13:14:29.134Z,7.97
2018-06-14T13:16:58.904Z,7.07
2018-06-14T13:19:29.275Z,7.07
2018-06-14T13:21:59.065Z,8.13
2018-06-14T13:24:33.764Z,8.27
2018-06-14T13:27:03.684Z,7.20
2018-06-14T13:29:34.027Z,7.50
2018-06-14T13:32:03.942Z,7.97
2018-06-14T13:34:34.423Z,7.70
2018-06-14T13:37:04.387Z,8.90
2018-06-14T13:39:34.326Z,9.07
2018-06-14T13:42:04.892Z,9.40
2018-06-14T13:44:34.782Z,10.93
2018-06-14T13:47:04.735Z,10.60
2018-06-14T13:49:34.604Z,9.70
2018-06-14T13:52:04.676Z,9.30
2018-06-14T13:54:34.614Z,9.03
2018-06-14T13:57:04.603Z,10.20
2018-06-14T13:59:34.753Z,8.03
2018-06-14T14:02:04.672Z,9.53
2018-06-14T14:04:35.141Z,8.30
2018-06-14T14:07:06.994Z,9.40
2018-06-14T14:09:36.995Z,8.67
2018-06-14T14:12:06.632Z,8.73
2018-06-14T14:14:36.398Z,7.87
2018-06-14T14:17:06.657Z,8.40
2018-06-14T14:19:36.566Z,7.03
2018-06-14T14:22:06.743Z,8.50
2018-06-14T14:24:36.569Z,9.00
2018-06-14T14:27:06.987Z,10.13
2018-06-14T14:29:36.917Z,6.73
2018-06-14T14:32:07.370Z,7.33
2018-06-14T14:34:37.468Z,6.87
2018-06-14T14:37:07.632Z,7.57
2018-06-14T14:39:37.194Z,8.00
2018-06-14T14:42:06.774Z,7.53
2018-06-14T14:44:36.830Z,7.17
2018-06-14T14:47:06.624Z,8.70
2018-06-14T14:49:36.503Z,7.07
2018-06-14T14:52:06.234Z,6.07
2018-06-14T14:54:35.879Z,6.45
2018-06-14T14:57:06.362Z,6.83
2018-06-14T14:59:36.184Z,6.60
2018-06-14T15:02:06.027Z,7.95
2018-06-14T15:04:36.481Z,7.42
2018-06-14T15:07:06.340Z,7.20
2018-06-14T15:09:36.227Z,10.13
2018-06-14T15:12:05.883Z,8.23
2018-06-14T15:14:35.583Z,11.70
2018-06-14T15:17:05.518Z,7.90
2018-06-14T15:19:35.303Z,9.85
2018-06-14T15:22:05.453Z,8.48
2018-06-14T15:24:35.395Z,7.28
2018-06-14T15:27:04.965Z,7.40
2018-06-14T15:29:35.186Z,7.80
2018-06-14T15:32:04.917Z,9.13
2018-06-14T15:34:34.623Z,9.37
2018-06-14T15:37:04.512Z,9.53
2018-06-14T15:39:34.131Z,10.73
2018-06-14T15:42:03.958Z,7.93
2018-06-14T15:44:33.917Z,7.37
2018-06-14T15:47:03.864Z,8.03
2018-06-14T15:49:33.701Z,6.77
2018-06-14T15:52:03.469Z,8.07
2018-06-14T15:54:33.721Z,7.77
2018-06-14T15:57:03.546Z,6.70
2018-06-14T15:59:33.945Z,6.53
2018-06-14T16:02:03.827Z,8.37
2018-06-14T16:04:34.053Z,8.48
2018-06-14T16:07:03.720Z,8.18
2018-06-14T16:09:33.374Z,9.30
2018-06-14T16:12:03.669Z,8.35
2018-06-14T16:14:33.731Z,9.20
2018-06-14T16:17:03.580Z,7.60
2018-06-14T16:19:33.826Z,6.90
2018-06-14T16:22:03.635Z,9.50
2018-06-14T16:24:34.012Z,7.10
2018-06-14T16:27:03.724Z,6.87
2018-06-14T16:29:33.388Z,9.77
2018-06-14T16:32:03.414Z,8.80
2018-06-14T16:34:33.214Z,9.43
2018-06-14T16:37:03.204Z,7.70
2018-06-14T16:39:32.781Z,7.87
2018-06-14T16:42:02.348Z,7.12
2018-06-14T16:44:32.200Z,7.25
2018-06-14T16:47:01.865Z,7.17
2018-06-14T16:49:31.690Z,7.15
2018-06-14T16:52:02.437Z,7.17
2018-06-14T16:54:32.170Z,7.28
2018-06-14T16:57:02.113Z,7.60
2018-06-14T16:59:34.655Z,6.80
2018-06-14T17:02:05.071Z,7.17
2018-06-14T17:04:34.871Z,9.40
2018-06-14T17:07:05.212Z,11.43
2018-06-14T17:09:34.878Z,10.43
2018-06-14T17:12:04.994Z,11.90
2018-06-14T17:14:34.948Z,18.50
2018-06-14T17:17:04.993Z,7.10
2018-06-14T17:19:35.424Z,9.33
2018-06-14T17:22:05.405Z,10.20
2018-06-14T17:24:35.181Z,8.90
2018-06-14T17:27:05.349Z,9.53
2018-06-14T17:29:35.180Z,10.50
2018-06-14T17:32:05.091Z,10.43
2018-06-14T17:34:34.871Z,9.83
2018-06-14T17:37:04.792Z,9.17
2018-06-14T17:39:35.050Z,8.40
2018-06-14T17:42:04.879Z,8.27
2018-06-14T17:44:34.526Z,8.13
2018-06-14T17:47:04.566Z,9.13
2018-06-14T17:49:34.582Z,9.40
2018-06-14T17:52:04.819Z,9.67
2018-06-14T17:54:34.743Z,10.60
2018-06-14T17:57:04.770Z,10.87
2018-06-14T17:59:34.786Z,10.73
2018-06-14T18:02:04.491Z,10.30
2018-06-14T18:04:34.248Z,10.17
2018-06-14T18:07:03.970Z,10.40
2018-06-14T18:09:33.512Z,9.47
2018-06-14T18:12:03.757Z,9.00
2018-06-14T18:14:33.943Z,9.20
2018-06-14T18:17:03.949Z,9.90
2018-06-14T18:19:33.754Z,9.27
2018-06-14T18:22:04.105Z,9.83
2018-06-14T18:24:33.679Z,10.93
2018-06-14T18:27:04.023Z,10.80
2018-06-14T18:29:33.835Z,10.57
2018-06-14T18:32:03.941Z,9.33
2018-06-14T18:34:33.542Z,9.73
2018-06-14T18:37:03.191Z,11.30
2018-06-14T18:39:33.440Z,9.70
2018-06-14T18:42:03.524Z,11.10
2018-06-14T18:44:33.794Z,10.50
2018-06-14T18:47:03.634Z,10.60
2018-06-14T18:49:33.278Z,10.07
2018-06-14T18:52:03.126Z,9.37
2018-06-14T18:54:32.723Z,10.47
2018-06-14T18:57:02.835Z,10.50
2018-06-14T18:59:32.720Z,9.93
2018-06-14T19:02:02.511Z,10.13
2018-06-14T19:04:32.030Z,9.97
2018-06-14T19:07:01.576Z,10.37
2018-06-14T19:09:31.685Z,9.53
2018-06-14T19:12:01.302Z,10.80
2018-06-14T19:14:30.963Z,9.30
2018-06-14T19:17:01.157Z,9.67
2018-06-14T19:19:30.934Z,10.17
2018-06-14T19:22:01.046Z,9.30
2018-06-14T19:24:30.639Z,9.60
2018-06-14T19:27:00.556Z,10.30
2018-06-14T19:29:30.766Z,9.13
2018-06-14T19:32:00.431Z,9.30
2018-06-14T19:34:29.983Z,10.03
2018-06-14T19:36:59.946Z,10.57
2018-06-14T19:39:29.605Z,9.60
2018-06-14T19:41:59.419Z,10.07
2018-06-14T19:44:29.290Z,10.83
2018-06-14T19:46:58.891Z,10.30
2018-06-14T19:49:28.993Z,10.00
2018-06-14T19:51:58.807Z,10.27
2018-06-14T19:54:28.357Z,9.40
2018-06-14T19:56:58.451Z,10.17
2018-06-14T19:59:28.133Z,10.03
2018-06-14T20:01:57.909Z,8.57
2018-06-14T20:04:28.023Z,9.83
2018-06-14T20:06:57.554Z,9.80
2018-06-14T20:09:28.030Z,9.63
2018-06-14T20:11:57.720Z,10.27
2018-06-14T20:14:27.944Z,9.40
2018-06-14T20:16:57.826Z,8.83
2018-06-14T20:19:27.812Z,8.90
2018-06-14T20:21:57.468Z,8.33
2018-06-14T20:24:27.400Z,8.90
2018-06-14T20:26:57.303Z,8.93
2018-06-14T20:29:27.043Z,10.30
2018-06-14T20:31:56.846Z,9.40
2018-06-14T20:34:26.519Z,10.57
2018-06-14T20:36:56.251Z,9.37
2018-06-14T20:39:26.021Z,9.90
2018-06-14T20:41:55.939Z,9.90
2018-06-14T20:44:25.878Z,9.33
2018-06-14T20:46:55.710Z,9.57
2018-06-14T20:49:25.513Z,9.37
2018-06-14T20:51:55.445Z,10.00
2018-06-14T20:54:25.390Z,9.97
2018-06-14T20:56:55.119Z,10.13
2018-06-14T20:59:24.950Z,10.77
2018-06-14T21:01:54.642Z,11.97
2018-06-14T21:04:24.408Z,10.73
2018-06-14T21:06:54.352Z,10.57
2018-06-14T21:09:24.079Z,11.50
2018-06-14T21:11:53.899Z,11.07
2018-06-14T21:14:23.621Z,10.77
2018-06-14T21:16:53.361Z,12.57
2018-06-14T21:19:23.241Z,13.57
2018-06-14T21:21:53.039Z,11.33
2018-06-14T21:24:22.979Z,13.03
2018-06-14T21:26:52.675Z,13.20
2018-06-14T21:29:22.343Z,12.97
2018-06-14T21:31:51.938Z,13.50
2018-06-14T21:34:21.642Z,14.20
2018-06-14T21:36:51.547Z,14.50
2018-06-14T21:39:21.097Z,13.70
2018-06-14T21:41:50.819Z,12.80
2018-06-14T21:44:20.595Z,11.77
2018-06-14T21:46:50.460Z,14.77
2018-06-14T21:49:20.252Z,16.80
2018-06-14T21:51:50.264Z,18.03
2018-06-14T21:54:20.011Z,16.87
2018-06-14T21:56:49.610Z,16.43
2018-06-14T21:59:19.567Z,16.60
2018-06-14T22:01:49.368Z,15.30
2018-06-14T22:04:18.911Z,18.07
2018-06-14T22:06:48.854Z,19.60
2018-06-14T22:09:19.291Z,19.93
2018-06-14T22:11:49.167Z,17.73
2018-06-14T22:14:19.402Z,17.50
2018-06-14T22:16:49.214Z,16.27
2018-06-14T22:19:19.231Z,15.07
2018-06-14T22:21:49.139Z,14.43
2018-06-14T22:24:18.951Z,14.43
2018-06-14T22:26:48.795Z,14.77
2018-06-14T22:29:18.373Z,15.20
2018-06-14T22:31:48.035Z,14.27
2018-06-14T22:35:28.884Z,14.43
2018-06-14T22:37:58.867Z,14.33
2018-06-14T22:40:28.598Z,14.43
2018-06-14T22:42:58.393Z,14.83
2018-06-14T22:45:28.732Z,14.00
2018-06-14T22:47:58.667Z,14.37
2018-06-14T22:50:39.425Z,13.93
2018-06-14T22:53:10.479Z,12.73
2018-06-14T22:55:40.470Z,12.97
2018-06-14T22:58:10.183Z,13.30
2018-06-14T23:00:50.783Z,12.13
2018-06-14T23:03:20.054Z,11.83
2018-06-14T23:05:49.864Z,11.30
2018-06-14T23:08:19.711Z,10.07
2018-06-14T23:11:00.686Z,9.10
2018-06-14T23:13:30.892Z,9.90
2018-06-14T23:16:00.867Z,9.83
2018-06-14T23:18:30.611Z,9.37
2018-06-14T23:21:00.952Z,9.13
2018-06-14T23:23:30.719Z,8.40
2018-06-14T23:26:00.654Z,8.50
2018-06-14T23:28:30.782Z,9.37
2018-06-14T23:31:00.418Z,8.33
2018-06-14T23:33:29.895Z,9.70
2018-06-14T23:36:00.079Z,9.50
2018-06-14T23:38:30.132Z,9.80
2018-06-14T23:40:59.835Z,10.47
2018-06-14T23:43:29.900Z,10.20
2018-06-14T23:45:59.573Z,10.20
2018-06-14T23:48:29.716Z,11.10
2018-06-14T23:50:59.625Z,11.83
2018-06-14T23:53:29.467Z,11.30
2018-06-14T23:55:59.555Z,11.67
2018-06-14T23:58:29.134Z,11.77
